»·PEaware :: N1511H KMRY-KRDD

N1511H :: KMRY-KRDD

FLIGHT INFORMATION

Flight Status: Arrived
Operator: Privately registered:
United States
More flights under this callsign
Pilot: Phillip S. (23877)
Aircraft: EMBRAER PHENOM 300
(E55P)
More flights by this aircraft type
Origin: KMRY Monterey Peninsula
United States
Destination: KRDD Redding Mun
United States
More flights between these airports :: More routes between these airports
Route: MRY5 SHOEY V27 PYE RBL
File this flight plan on PilotEdge
Remarks: No Remarks
Altitude:
(Current/Filed)
28,000ft
Speed:
(Current/Filed)
400kts
Departed: 03-Mar-20 04:46 PM
Arrived: 03-Mar-20 05:35 PM
Distance/Time
Traveled:
236nm/0:49
Distance/Time
To Go:
Arrived

Flight Plot

Page will automatically refresh every two minutes.

Flight plan parsing failed; only flown route is shown


Map Options




Map Legend


Flown Route
Filed Route
Departure Airport
Arrival Airport
Navaid (VOR, NDB)
Fix

Horizontal Profiles

Position Reports

Time Latitude Longitude Heading Altitude Ground
Speed
03-Mar-20 16:28 36.588413 -121.852163 204 208ft 0kts
03-Mar-20 16:29 36.588413 -121.852163 204 208ft 0kts
03-Mar-20 16:30 36.588413 -121.852163 204 208ft 0kts
03-Mar-20 16:31 36.588413 -121.852163 204 208ft 0kts
03-Mar-20 16:32 36.588413 -121.852163 204 208ft 0kts
03-Mar-20 16:33 36.588413 -121.852163 204 208ft 0kts
03-Mar-20 16:34 36.588413 -121.852163 204 208ft 0kts
03-Mar-20 16:35 36.588413 -121.852163 204 208ft 0kts
03-Mar-20 16:36 36.588413 -121.852163 204 208ft 0kts
03-Mar-20 16:37 36.588413 -121.852163 204 208ft 0kts
03-Mar-20 16:38 36.588413 -121.852163 204 208ft 0kts
03-Mar-20 16:39 36.588544 -121.852087 204 208ft 2kts
03-Mar-20 16:40 36.588582 -121.851853 116 208ft 5kts
03-Mar-20 16:41 36.587161 -121.847362 112 208ft 22kts
03-Mar-20 16:41 36.585221 -121.842006 113 208ft 20kts
03-Mar-20 16:43 36.582873 -121.834855 96 208ft 0kts
03-Mar-20 16:44 36.582868 -121.834795 95 208ft 2kts
03-Mar-20 16:44 36.583422 -121.833863 299 208ft 8kts
03-Mar-20 16:45 36.586877 -121.843884 294 221ft 123kts
03-Mar-20 16:47 36.623449 -121.883706 342 3773ft 198kts
03-Mar-20 16:47 36.674810 -121.903863 343 6185ft 261kts
03-Mar-20 16:48 36.745356 -121.931938 343 8284ft 260kts
03-Mar-20 16:50 36.793984 -121.993516 252 11547ft 268kts
03-Mar-20 16:50 36.766435 -122.071614 253 13930ft 315kts
03-Mar-20 16:51 36.788424 -122.173088 321 16767ft 327kts
03-Mar-20 16:52 36.864089 -122.239729 324 19586ft 336kts
03-Mar-20 16:53 36.940055 -122.307696 325 22385ft 334kts
03-Mar-20 16:54 37.014593 -122.374032 325 25180ft 323kts
03-Mar-20 16:55 37.086422 -122.437058 328 27702ft 316kts
03-Mar-20 16:56 37.175445 -122.478348 338 28054ft 362kts
03-Mar-20 16:57 37.273633 -122.520666 338 28064ft 382kts
03-Mar-20 16:58 37.375873 -122.564344 338 28065ft 395kts
03-Mar-20 16:59 37.481582 -122.609556 338 28067ft 404kts
03-Mar-20 17:00 37.588808 -122.655546 338 28072ft 409kts
03-Mar-20 17:01 37.696901 -122.702044 338 28068ft 412kts
03-Mar-20 17:02 37.805756 -122.749014 338 28017ft 413kts
03-Mar-20 17:03 37.914531 -122.796098 338 28062ft 413kts
03-Mar-20 17:04 38.023424 -122.843381 338 28085ft 412kts
03-Mar-20 17:05 38.137674 -122.849911 9 28093ft 429kts
03-Mar-20 17:06 38.253751 -122.814569 8 28050ft 428kts
03-Mar-20 17:07 38.370211 -122.779146 8 28036ft 429kts
03-Mar-20 17:08 38.486220 -122.743598 8 28003ft 430kts
03-Mar-20 17:09 38.602655 -122.707774 8 27975ft 431kts
03-Mar-20 17:10 38.719259 -122.671764 8 28044ft 430kts
03-Mar-20 17:11 38.835977 -122.635604 8 28022ft 431kts
03-Mar-20 17:12 38.950759 -122.599885 8 27101ft 416kts
03-Mar-20 17:13 39.061834 -122.565254 8 25300ft 406kts
03-Mar-20 17:14 39.169481 -122.531549 8 24119ft 386kts
03-Mar-20 17:15 39.268964 -122.500312 8 23423ft 358kts
03-Mar-20 17:16 39.366279 -122.469754 9 21619ft 362kts
03-Mar-20 17:17 39.463308 -122.439117 9 19817ft 355kts
03-Mar-20 17:18 39.558832 -122.408872 9 18016ft 345kts
03-Mar-20 17:19 39.646388 -122.381035 9 16382ft 308kts
03-Mar-20 17:20 39.727386 -122.355298 10 14878ft 293kts
03-Mar-20 17:21 39.804759 -122.330646 11 13482ft 279kts
03-Mar-20 17:22 39.878495 -122.307130 11 12113ft 272kts
03-Mar-20 17:23 39.950761 -122.283926 12 10839ft 262kts
03-Mar-20 17:24 40.021885 -122.263433 11 9661ft 266kts
03-Mar-20 17:25 40.094504 -122.245395 3 8440ft 264kts
03-Mar-20 17:26 40.162766 -122.266618 341 8025ft 242kts
03-Mar-20 17:27 40.224307 -122.294016 349 7995ft 230kts
03-Mar-20 17:28 40.288566 -122.296045 0 7075ft 234kts
03-Mar-20 17:29 40.348165 -122.294158 1 5270ft 202kts
03-Mar-20 17:30 40.397319 -122.292021 357 2990ft 147kts
03-Mar-20 17:31 40.435392 -122.295498 355 1187ft 119kts
03-Mar-20 17:32 40.466103 -122.296574 356 686ft 114kts
03-Mar-20 17:33 40.497186 -122.295081 0 664ft 118kts
03-Mar-20 17:34 40.514204 -122.295813 247 505ft 7kts
03-Mar-20 17:35 40.514066 -122.296345 235 505ft 2kts
03-Mar-20 17:36 40.509468 -122.296324 178 505ft 11kts
03-Mar-20 17:37 40.508264 -122.299306 262 506ft 0kts

Navigation Log

Ident Type
Flight plan parsing failed, navigation log unavailable